Kennard, Nebraska
Current Conditions -  °F | °C
As of 5:55 PM on Friday 28 Nov 2014 (Local Time) from KBTA Reporting Station
Clear Clear  
Wind Chill: 43°   Ceiling: Unl
Heat Index: 47°   Visibility: 10mi
Dew Point: 32°   Wind: 8mph
Humidity: 55%   Direction: 140°SE
Pressure: 29.67"   Gusts: NA
Location:  41.47°N, 96.2°W
Report Text: KBTA 282355Z AUTO 14007KT 10SM CLR 09/00 A2967 RMK AO2 T00851002 10127 20064
Loading
Personal Weather Stations






























Interactive Weather Map New forecast layout! Learn more

10-Day Weather Forecast

Advertisements
Track Severe Weather on mobile